createdAt,value
2019-04-04T04:00:41.471Z,0.00
2019-04-04T04:01:45.436Z,0.00
2019-04-04T04:02:42.417Z,0.00
2019-04-04T04:03:41.410Z,0.00
2019-04-04T04:04:41.405Z,0.00
2019-04-04T04:05:41.430Z,0.00
2019-04-04T04:06:42.204Z,0.00
2019-04-04T04:07:49.103Z,0.00
2019-04-04T04:08:41.365Z,0.00
2019-04-04T04:09:41.353Z,0.00
2019-04-04T04:10:41.340Z,0.00
2019-04-04T04:11:41.354Z,0.00
2019-04-04T04:12:43.167Z,0.00
2019-04-04T04:13:41.350Z,0.00
2019-04-04T04:14:41.301Z,0.00
2019-04-04T04:15:41.292Z,0.00
2019-04-04T04:16:41.282Z,0.00
2019-04-04T04:17:45.057Z,0.00
2019-04-04T04:18:41.269Z,0.00
2019-04-04T04:19:41.241Z,0.00
2019-04-04T04:20:41.242Z,0.00
2019-04-04T04:21:43.298Z,0.00
2019-04-04T04:22:41.239Z,0.00
2019-04-04T04:23:41.205Z,0.00
2019-04-04T04:24:41.190Z,0.00
2019-04-04T04:25:41.185Z,0.00
2019-04-04T04:26:42.168Z,0.00
2019-04-04T04:27:41.154Z,0.00
2019-04-04T04:28:41.175Z,0.00
2019-04-04T04:29:41.138Z,0.00
2019-04-04T04:30:48.652Z,0.00
2019-04-04T04:31:49.527Z,0.00
2019-04-04T04:32:48.665Z,0.00
2019-04-04T04:33:48.647Z,0.00
2019-04-04T04:34:41.084Z,0.00
2019-04-04T04:35:42.320Z,0.00
2019-04-04T04:36:41.059Z,4.00
2019-04-04T04:37:41.070Z,4.00
2019-04-04T04:38:41.042Z,0.00
2019-04-04T04:39:41.536Z,4.00
2019-04-04T04:40:41.058Z,8.00
2019-04-04T04:41:41.016Z,4.00
2019-04-04T04:42:41.001Z,4.00
2019-04-04T04:43:41.007Z,8.00
2019-04-04T04:44:40.990Z,8.00
2019-04-04T04:45:41.708Z,12.00
2019-04-04T04:46:40.959Z,12.00
2019-04-04T04:47:40.947Z,16.00
2019-04-04T04:48:40.933Z,20.00
2019-04-04T04:49:40.950Z,24.00
2019-04-04T04:50:41.149Z,24.00
2019-04-04T04:51:43.287Z,28.00
2019-04-04T04:52:40.896Z,32.00
2019-04-04T04:53:40.936Z,32.00
2019-04-04T04:54:40.890Z,40.00
2019-04-04T04:55:40.866Z,44.00
2019-04-04T04:56:40.877Z,44.00
2019-04-04T04:57:40.862Z,48.00
2019-04-04T04:58:42.133Z,48.00
2019-04-04T04:59:40.824Z,52.00
2019-04-04T05:00:40.829Z,56.00
2019-04-04T05:01:40.800Z,56.00
2019-04-04T05:02:40.786Z,60.00
2019-04-04T05:03:40.776Z,64.00
2019-04-04T05:04:40.765Z,68.00
2019-04-04T05:05:40.766Z,76.00
2019-04-04T05:06:40.757Z,84.00
2019-04-04T05:07:40.756Z,92.00
2019-04-04T05:08:41.031Z,100.00
2019-04-04T05:09:40.708Z,100.00
2019-04-04T05:10:40.696Z,104.00
2019-04-04T05:11:40.687Z,108.00
2019-04-04T05:12:40.695Z,116.00
2019-04-04T05:13:40.664Z,120.00
2019-04-04T05:14:40.665Z,120.00
2019-04-04T05:15:40.640Z,120.00
2019-04-04T05:16:40.636Z,120.00
2019-04-04T05:17:41.999Z,124.00
2019-04-04T05:18:40.615Z,124.00
2019-04-04T05:19:40.605Z,132.00
2019-04-04T05:20:40.594Z,140.00
2019-04-04T05:21:40.589Z,156.00
2019-04-04T05:22:40.616Z,172.00
2019-04-04T05:23:40.586Z,184.00
2019-04-04T05:24:40.554Z,204.00
2019-04-04T05:25:53.383Z,220.00
2019-04-04T05:26:41.525Z,236.00
2019-04-04T05:27:40.525Z,236.00
2019-04-04T05:28:41.999Z,236.00
2019-04-04T05:29:40.494Z,228.00
2019-04-04T05:30:40.506Z,224.00
2019-04-04T05:31:40.474Z,216.00
2019-04-04T05:32:40.456Z,208.00
2019-04-04T05:33:40.500Z,216.00
2019-04-04T05:34:40.445Z,236.00
2019-04-04T05:35:40.424Z,272.00
2019-04-04T05:36:40.422Z,320.00
2019-04-04T05:37:40.408Z,356.00
2019-04-04T05:38:42.643Z,368.00
2019-04-04T05:39:40.430Z,372.00
2019-04-04T05:40:40.399Z,372.00
2019-04-04T05:41:40.361Z,388.00
2019-04-04T05:42:40.360Z,396.00
2019-04-04T05:43:40.352Z,416.00
2019-04-04T05:44:41.709Z,440.00
2019-04-04T05:45:40.321Z,460.00
2019-04-04T05:46:40.323Z,472.00
2019-04-04T05:47:40.331Z,480.00
2019-04-04T05:48:40.382Z,492.00
2019-04-04T05:49:40.304Z,492.00
2019-04-04T05:50:43.330Z,496.00
2019-04-04T05:51:40.351Z,504.00
2019-04-04T05:52:40.258Z,520.00
2019-04-04T05:53:40.232Z,536.00
2019-04-04T05:54:40.228Z,552.00
2019-04-04T05:55:41.846Z,560.00
2019-04-04T05:56:40.210Z,560.00
2019-04-04T05:57:40.213Z,560.00
2019-04-04T05:58:40.209Z,552.00
2019-04-04T05:59:42.292Z,540.00
2019-04-04T06:00:40.157Z,524.00
2019-04-04T06:01:40.167Z,516.00
2019-04-04T06:02:41.104Z,516.00
2019-04-04T06:03:40.129Z,524.00
2019-04-04T06:04:40.113Z,552.00
2019-04-04T06:05:40.108Z,584.00
2019-04-04T06:06:40.096Z,616.00
2019-04-04T06:07:40.103Z,640.00
2019-04-04T06:08:43.191Z,660.00
2019-04-04T06:09:42.000Z,676.00
2019-04-04T06:10:40.078Z,712.00
2019-04-04T06:11:40.053Z,760.00
2019-04-04T06:12:40.033Z,820.00
2019-04-04T06:13:40.028Z,864.00
2019-04-04T06:14:40.009Z,880.00
2019-04-04T06:15:40.028Z,880.00
2019-04-04T06:16:40.008Z,880.00
2019-04-04T06:17:39.991Z,880.00
2019-04-04T06:18:41.001Z,900.00
2019-04-04T06:19:39.956Z,924.00
2019-04-04T06:20:39.941Z,952.00
2019-04-04T06:21:39.964Z,972.00
2019-04-04T06:22:39.920Z,992.00
2019-04-04T06:23:39.913Z,1024.00
2019-04-04T06:24:39.904Z,1068.00
2019-04-04T06:25:39.893Z,1120.00
2019-04-04T06:26:39.899Z,1180.00
2019-04-04T06:27:40.856Z,1244.00
2019-04-04T06:28:39.860Z,1328.00
2019-04-04T06:29:39.845Z,1448.00
2019-04-04T06:30:43.323Z,1596.00
2019-04-04T06:31:39.823Z,1780.00
2019-04-04T06:32:40.032Z,1956.00
2019-04-04T06:33:39.806Z,2072.00
2019-04-04T06:34:39.798Z,2104.00
2019-04-04T06:35:40.061Z,2084.00
2019-04-04T06:36:39.775Z,2100.00
2019-04-04T06:37:39.779Z,2188.00
2019-04-04T06:38:39.774Z,2316.00
2019-04-04T06:39:39.744Z,2444.00
2019-04-04T06:40:39.735Z,2532.00
2019-04-04T06:41:39.719Z,2564.00
2019-04-04T06:42:39.709Z,2540.00
2019-04-04T06:43:41.362Z,2468.00
2019-04-04T06:44:39.708Z,2372.00
2019-04-04T06:45:39.679Z,2308.00
2019-04-04T06:46:39.691Z,2292.00
2019-04-04T06:47:39.663Z,2300.00
2019-04-04T06:48:39.670Z,2304.00
2019-04-04T06:49:47.192Z,2296.00
2019-04-04T06:50:48.186Z,2276.00
2019-04-04T06:51:48.421Z,2240.00
2019-04-04T06:52:48.268Z,2184.00
2019-04-04T06:53:47.290Z,2132.00
2019-04-04T06:54:39.599Z,2084.00
2019-04-04T06:55:40.204Z,2036.00
2019-04-04T06:56:39.559Z,1992.00
2019-04-04T06:57:39.555Z,1980.00
2019-04-04T06:58:40.205Z,2000.00
2019-04-04T06:59:47.081Z,2060.00
2019-04-04T07:00:50.014Z,2156.00
2019-04-04T07:01:47.043Z,2272.00
2019-04-04T07:02:39.498Z,2404.00
2019-04-04T07:03:39.488Z,2524.00
2019-04-04T07:04:39.492Z,2616.00
2019-04-04T07:05:39.469Z,2680.00
2019-04-04T07:06:41.758Z,2708.00
2019-04-04T07:07:43.158Z,2704.00
2019-04-04T07:08:39.429Z,2684.00
2019-04-04T07:09:39.429Z,2664.00
2019-04-04T07:10:39.432Z,2640.00
2019-04-04T07:11:39.398Z,2660.00
2019-04-04T07:12:39.403Z,2712.00
2019-04-04T07:13:42.736Z,2772.00
2019-04-04T07:14:45.487Z,2800.00
2019-04-04T07:15:46.647Z,2788.00
2019-04-04T07:16:40.364Z,2732.00
2019-04-04T07:17:40.411Z,2684.00
2019-04-04T07:18:40.966Z,2680.00
2019-04-04T07:19:39.318Z,2744.00
2019-04-04T07:20:39.319Z,2824.00
2019-04-04T07:21:39.309Z,2836.00
2019-04-04T07:22:39.285Z,2716.00
2019-04-04T07:23:41.735Z,2504.00
2019-04-04T07:24:39.267Z,2308.00
2019-04-04T07:25:39.812Z,2224.00
2019-04-04T07:26:39.269Z,2280.00
2019-04-04T07:27:39.236Z,2424.00
2019-04-04T07:28:39.222Z,2576.00
2019-04-04T07:29:39.232Z,2656.00
2019-04-04T07:30:39.197Z,2652.00
2019-04-04T07:31:39.184Z,2612.00
2019-04-04T07:32:41.605Z,2596.00
2019-04-04T07:33:42.652Z,2644.00
2019-04-04T07:34:39.174Z,2724.00
2019-04-04T07:35:39.155Z,2784.00
2019-04-04T07:36:39.155Z,2792.00
2019-04-04T07:37:39.197Z,2764.00
2019-04-04T07:38:39.115Z,2724.00
2019-04-04T07:39:39.124Z,2648.00
2019-04-04T07:40:39.094Z,2552.00
2019-04-04T07:41:40.740Z,2472.00
2019-04-04T07:42:40.251Z,2452.00
2019-04-04T07:43:39.533Z,2504.00
2019-04-04T07:44:39.052Z,2588.00
2019-04-04T07:45:39.043Z,2668.00
2019-04-04T07:46:41.307Z,2716.00
2019-04-04T07:47:39.028Z,2736.00
2019-04-04T07:48:39.033Z,2696.00
2019-04-04T07:49:40.251Z,2712.00
2019-04-04T07:50:38.993Z,2972.00
2019-04-04T07:51:38.972Z,3488.00
2019-04-04T07:52:38.967Z,3932.00
2019-04-04T07:53:38.968Z,3992.00
2019-04-04T07:54:39.203Z,3740.00
2019-04-04T07:55:40.141Z,3460.00
2019-04-04T07:56:38.924Z,3344.00
2019-04-04T07:57:38.913Z,3372.00
2019-04-04T07:58:38.908Z,3448.00
2019-04-04T07:59:38.897Z,3420.00
2019-04-04T08:00:38.897Z,3200.00
2019-04-04T08:01:50.599Z,3036.00
2019-04-04T08:02:39.854Z,3020.00
2019-04-04T08:03:38.872Z,2932.00
2019-04-04T08:04:38.838Z,2800.00
2019-04-04T08:05:38.853Z,2700.00
2019-04-04T08:06:38.815Z,2672.00
2019-04-04T08:07:38.807Z,2704.00
2019-04-04T08:08:38.792Z,2784.00
2019-04-04T08:09:38.783Z,2868.00
2019-04-04T08:10:38.837Z,2884.00
2019-04-04T08:11:38.780Z,2860.00
2019-04-04T08:12:38.754Z,2852.00
2019-04-04T08:13:38.740Z,2872.00
2019-04-04T08:14:38.765Z,2916.00
2019-04-04T08:15:38.715Z,2932.00
2019-04-04T08:16:38.729Z,2916.00
2019-04-04T08:17:38.700Z,2884.00
2019-04-04T08:18:38.685Z,2856.00
2019-04-04T08:19:38.680Z,2832.00
2019-04-04T08:20:38.660Z,2844.00
2019-04-04T08:21:38.650Z,2880.00
2019-04-04T08:22:39.830Z,2932.00
2019-04-04T08:23:38.627Z,3004.00
2019-04-04T08:24:38.627Z,3048.00
2019-04-04T08:25:38.634Z,3060.00
2019-04-04T08:26:38.600Z,3084.00
2019-04-04T08:27:38.602Z,3148.00
2019-04-04T08:28:38.582Z,3252.00
2019-04-04T08:29:38.571Z,3376.00
2019-04-04T08:30:38.566Z,3508.00
2019-04-04T08:31:38.554Z,3592.00
2019-04-04T08:32:38.544Z,3588.00
2019-04-04T08:33:38.524Z,3560.00
2019-04-04T08:34:38.519Z,3596.00
2019-04-04T08:35:38.523Z,3620.00
2019-04-04T08:36:38.495Z,3568.00
2019-04-04T08:37:38.505Z,3532.00
2019-04-04T08:38:38.479Z,3524.00
2019-04-04T08:39:38.468Z,3488.00
2019-04-04T08:40:38.446Z,3440.00
2019-04-04T08:41:38.437Z,3392.00
2019-04-04T08:42:38.436Z,3372.00
2019-04-04T08:43:38.443Z,3396.00
2019-04-04T08:44:38.401Z,3468.00
2019-04-04T08:45:38.399Z,3540.00
2019-04-04T08:46:38.386Z,3544.00
2019-04-04T08:47:38.373Z,3508.00
2019-04-04T08:48:38.373Z,3524.00
2019-04-04T08:49:38.373Z,3520.00
2019-04-04T08:50:38.342Z,3428.00
2019-04-04T08:51:38.332Z,3340.00
2019-04-04T08:52:38.318Z,3348.00
2019-04-04T08:53:40.232Z,3392.00
2019-04-04T08:54:38.310Z,3420.00
2019-04-04T08:55:38.287Z,3408.00
2019-04-04T08:56:38.280Z,3356.00
2019-04-04T08:57:38.276Z,3268.00
2019-04-04T08:58:38.254Z,3176.00
2019-04-04T08:59:38.260Z,3108.00
2019-04-04T09:00:38.239Z,3052.00
2019-04-04T09:01:38.222Z,3032.00
2019-04-04T09:02:38.211Z,3084.00
2019-04-04T09:03:38.200Z,3168.00
2019-04-04T09:04:38.190Z,3264.00
2019-04-04T09:05:38.212Z,3348.00
2019-04-04T09:06:38.171Z,3360.00
2019-04-04T09:07:38.153Z,3276.00
2019-04-04T09:08:38.149Z,3164.00
2019-04-04T09:09:38.250Z,3096.00
2019-04-04T09:10:38.134Z,3100.00
2019-04-04T09:11:38.143Z,3176.00
2019-04-04T09:12:38.101Z,3292.00
2019-04-04T09:13:38.092Z,3432.00
2019-04-04T09:14:40.962Z,3588.00
2019-04-04T09:15:38.074Z,3720.00
2019-04-04T09:16:38.064Z,3744.00
2019-04-04T09:17:45.595Z,3660.00
2019-04-04T09:18:45.576Z,3596.00
2019-04-04T09:19:45.576Z,3600.00
2019-04-04T09:20:38.019Z,3628.00
2019-04-04T09:21:45.571Z,3628.00
2019-04-04T09:22:40.874Z,3596.00
2019-04-04T09:23:37.998Z,3528.00
2019-04-04T09:24:37.977Z,3432.00
2019-04-04T09:25:40.725Z,3352.00
2019-04-04T09:26:38.013Z,3256.00
2019-04-04T09:27:37.964Z,3164.00
2019-04-04T09:28:37.931Z,3120.00
2019-04-04T09:29:37.924Z,3076.00
2019-04-04T09:30:37.917Z,2996.00
2019-04-04T09:31:37.899Z,2932.00
2019-04-04T09:32:37.917Z,2880.00
2019-04-04T09:33:37.879Z,2856.00
2019-04-04T09:34:37.868Z,2868.00
2019-04-04T09:35:37.859Z,2944.00
2019-04-04T09:36:37.850Z,3040.00
2019-04-04T09:37:37.839Z,3116.00
2019-04-04T09:38:37.840Z,3192.00
2019-04-04T09:39:37.817Z,3328.00
2019-04-04T09:40:37.800Z,3472.00
2019-04-04T09:41:37.803Z,3684.00
2019-04-04T09:42:37.801Z,3896.00
2019-04-04T09:43:37.766Z,4084.00
2019-04-04T09:44:37.781Z,4208.00
2019-04-04T09:45:37.751Z,4308.00
2019-04-04T09:46:37.746Z,4384.00
2019-04-04T09:47:37.734Z,4444.00
2019-04-04T09:48:37.717Z,4480.00
2019-04-04T09:49:37.704Z,4504.00
2019-04-04T09:50:37.715Z,4492.00
2019-04-04T09:51:37.681Z,4440.00
2019-04-04T09:52:37.679Z,4392.00
2019-04-04T09:53:52.453Z,4292.00
2019-04-04T09:54:38.664Z,4056.00
2019-04-04T09:55:37.640Z,3880.00
2019-04-04T09:56:37.632Z,3976.00
2019-04-04T09:57:37.630Z,4284.00
2019-04-04T09:58:37.611Z,4540.00
2019-04-04T09:59:37.616Z,4624.00
2019-04-04T10:00:37.584Z,4540.00
2019-04-04T10:01:37.575Z,4308.00
2019-04-04T10:02:37.560Z,4080.00
2019-04-04T10:03:37.568Z,3952.00
2019-04-04T10:04:37.571Z,3884.00
2019-04-04T10:05:37.535Z,3872.00
2019-04-04T10:06:37.529Z,3884.00
2019-04-04T10:07:37.512Z,3912.00
2019-04-04T10:08:38.919Z,4008.00
2019-04-04T10:09:37.501Z,4108.00
2019-04-04T10:10:37.481Z,4268.00
2019-04-04T10:11:37.501Z,4448.00
2019-04-04T10:12:37.456Z,4704.00
2019-04-04T10:13:37.447Z,4888.00
2019-04-04T10:14:37.436Z,4988.00
2019-04-04T10:15:37.442Z,5184.00
2019-04-04T10:16:37.418Z,5528.00
2019-04-04T10:17:37.411Z,5936.00
2019-04-04T10:18:37.392Z,6364.00
2019-04-04T10:19:37.391Z,6784.00
2019-04-04T10:20:37.373Z,7104.00
2019-04-04T10:21:37.376Z,7204.00
2019-04-04T10:22:37.349Z,7152.00
2019-04-04T10:23:37.334Z,7116.00
2019-04-04T10:24:37.325Z,7168.00
2019-04-04T10:25:37.318Z,7244.00
2019-04-04T10:26:37.333Z,7308.00
2019-04-04T10:27:37.293Z,7400.00
2019-04-04T10:28:37.282Z,7436.00
2019-04-04T10:29:37.273Z,7388.00
2019-04-04T10:30:37.300Z,7216.00
2019-04-04T10:31:37.260Z,7048.00
2019-04-04T10:32:37.257Z,7008.00
2019-04-04T10:33:37.237Z,7144.00
2019-04-04T10:34:37.226Z,7372.00
2019-04-04T10:35:37.211Z,7560.00
2019-04-04T10:36:37.203Z,7684.00
2019-04-04T10:37:37.199Z,7772.00
2019-04-04T10:38:37.176Z,7908.00
2019-04-04T10:39:37.184Z,8240.00
2019-04-04T10:40:37.155Z,8860.00
2019-04-04T10:41:37.156Z,9644.00
2019-04-04T10:42:37.138Z,10340.00
2019-04-04T10:43:37.129Z,10804.00
2019-04-04T10:44:37.376Z,10972.00
2019-04-04T10:45:37.126Z,10828.00
2019-04-04T10:46:37.081Z,10568.00
2019-04-04T10:47:37.079Z,10456.00
2019-04-04T10:48:37.071Z,10560.00
2019-04-04T10:49:37.064Z,10668.00
2019-04-04T10:50:37.045Z,10612.00
2019-04-04T10:51:37.050Z,10436.00
2019-04-04T10:52:37.028Z,10192.00
2019-04-04T10:53:37.010Z,9892.00
2019-04-04T10:54:37.003Z,9572.00
2019-04-04T10:55:36.990Z,9348.00
2019-04-04T10:56:37.003Z,9188.00
2019-04-04T10:57:36.995Z,9088.00
2019-04-04T10:58:36.961Z,9048.00
2019-04-04T10:59:36.958Z,8952.00
2019-04-04T11:00:36.941Z,8388.00
2019-04-04T11:01:36.928Z,7528.00
2019-04-04T11:02:36.930Z,6920.00
2019-04-04T11:03:36.937Z,6628.00
2019-04-04T11:04:36.910Z,6292.00
2019-04-04T11:05:36.885Z,5752.00
2019-04-04T11:06:36.880Z,5220.00
2019-04-04T11:07:36.863Z,4836.00
2019-04-04T11:08:36.858Z,4612.00
2019-04-04T11:09:42.072Z,4456.00
2019-04-04T11:10:37.843Z,4244.00
2019-04-04T11:11:36.827Z,4028.00
2019-04-04T11:12:36.806Z,3868.00
2019-04-04T11:13:36.797Z,3736.00
2019-04-04T11:14:36.815Z,3664.00
2019-04-04T11:15:36.776Z,3616.00
2019-04-04T11:16:36.771Z,3580.00
2019-04-04T11:17:36.764Z,3444.00
2019-04-04T11:18:36.744Z,3208.00
2019-04-04T11:19:36.768Z,3068.00
2019-04-04T11:20:36.722Z,3008.00
2019-04-04T11:21:36.717Z,2948.00
2019-04-04T11:22:36.721Z,2864.00
2019-04-04T11:23:36.691Z,2748.00
2019-04-04T11:24:36.677Z,2572.00
2019-04-04T11:25:36.689Z,2408.00
2019-04-04T11:26:36.654Z,2340.00
2019-04-04T11:27:36.671Z,2400.00
2019-04-04T11:28:36.636Z,2504.00
2019-04-04T11:29:36.630Z,2616.00
2019-04-04T11:30:36.617Z,2740.00
2019-04-04T11:31:36.601Z,2928.00
2019-04-04T11:32:36.624Z,3160.00
2019-04-04T11:33:36.585Z,3404.00
2019-04-04T11:34:53.038Z,3604.00
2019-04-04T11:35:37.554Z,3772.00
2019-04-04T11:36:44.083Z,3860.00
2019-04-04T11:37:36.589Z,3908.00
2019-04-04T11:38:44.350Z,3912.00
2019-04-04T11:39:36.513Z,3920.00
2019-04-04T11:40:36.516Z,3952.00
2019-04-04T11:41:36.497Z,4048.00
2019-04-04T11:42:36.479Z,4172.00
2019-04-04T11:43:36.487Z,4288.00
2019-04-04T11:44:36.459Z,4352.00
2019-04-04T11:45:36.450Z,4324.00
2019-04-04T11:46:36.457Z,4212.00
2019-04-04T11:47:36.443Z,4120.00
2019-04-04T11:48:36.445Z,4036.00
2019-04-04T11:49:36.429Z,3904.00
2019-04-04T11:50:36.400Z,3780.00
2019-04-04T11:51:36.385Z,3668.00
2019-04-04T11:52:36.386Z,3564.00
2019-04-04T11:53:36.363Z,3564.00
2019-04-04T11:54:36.354Z,3684.00
2019-04-04T11:55:36.369Z,3912.00
2019-04-04T11:56:36.342Z,4200.00
2019-04-04T11:57:36.469Z,4428.00
2019-04-04T11:58:36.319Z,4456.00
2019-04-04T11:59:36.303Z,4516.00
2019-04-04T12:00:36.307Z,4788.00
2019-04-04T12:01:36.280Z,5216.00
2019-04-04T12:02:36.268Z,5696.00
2019-04-04T12:03:36.253Z,6128.00
2019-04-04T12:04:36.255Z,6488.00
2019-04-04T12:05:36.254Z,6760.00
2019-04-04T12:06:36.225Z,6892.00
2019-04-04T12:07:38.362Z,7088.00
2019-04-04T12:08:36.217Z,7248.00
2019-04-04T12:09:36.195Z,7228.00
2019-04-04T12:10:36.181Z,6936.00
2019-04-04T12:11:36.215Z,6460.00
2019-04-04T12:12:36.232Z,5952.00
2019-04-04T12:13:36.151Z,5520.00
2019-04-04T12:14:36.135Z,5296.00
2019-04-04T12:15:36.139Z,5316.00
2019-04-04T12:16:36.129Z,5472.00
2019-04-04T12:17:36.105Z,5700.00
2019-04-04T12:18:36.112Z,5716.00
2019-04-04T12:19:36.087Z,5536.00
2019-04-04T12:20:36.075Z,5416.00
2019-04-04T12:21:36.089Z,5536.00
2019-04-04T12:22:36.053Z,5828.00
2019-04-04T12:23:36.036Z,5960.00
2019-04-04T12:24:36.025Z,5708.00
2019-04-04T12:25:36.016Z,5180.00
2019-04-04T12:26:36.007Z,4672.00
2019-04-04T12:27:36.013Z,4232.00
2019-04-04T12:28:35.986Z,3948.00
2019-04-04T12:29:35.989Z,3864.00
2019-04-04T12:30:35.981Z,3976.00
2019-04-04T12:31:35.961Z,4144.00
2019-04-04T12:32:35.967Z,4264.00
2019-04-04T12:33:35.931Z,4396.00
2019-04-04T12:34:35.925Z,4656.00
2019-04-04T12:35:35.909Z,5056.00
2019-04-04T12:36:35.897Z,5536.00
2019-04-04T12:37:35.896Z,5960.00
2019-04-04T12:38:35.891Z,6292.00
2019-04-04T12:39:35.870Z,6744.00
2019-04-04T12:40:35.858Z,7488.00
2019-04-04T12:41:35.845Z,8268.00
2019-04-04T12:42:35.855Z,8524.00
2019-04-04T12:43:35.890Z,8384.00
2019-04-04T12:44:35.813Z,7964.00
2019-04-04T12:45:35.802Z,7440.00
2019-04-04T12:46:35.789Z,6944.00
2019-04-04T12:47:35.800Z,6520.00
2019-04-04T12:48:35.770Z,6204.00
2019-04-04T12:49:35.757Z,6084.00
2019-04-04T12:50:35.748Z,6220.00
2019-04-04T12:51:35.739Z,6468.00
2019-04-04T12:52:37.013Z,6596.00
2019-04-04T12:53:35.734Z,6524.00
2019-04-04T12:54:35.706Z,6308.00
2019-04-04T12:55:35.692Z,6024.00
2019-04-04T12:56:35.679Z,5740.00
2019-04-04T12:57:35.669Z,5484.00
2019-04-04T12:58:35.677Z,5292.00
2019-04-04T12:59:35.651Z,5184.00
2019-04-04T13:00:35.643Z,5152.00
2019-04-04T13:01:35.641Z,5100.00
2019-04-04T13:02:35.626Z,4992.00
2019-04-04T13:03:35.624Z,4856.00
2019-04-04T13:04:35.616Z,4640.00
2019-04-04T13:05:35.585Z,4532.00
2019-04-04T13:06:35.575Z,4560.00
2019-04-04T13:07:35.580Z,4520.00
2019-04-04T13:08:35.561Z,4340.00
2019-04-04T13:09:35.564Z,4104.00
2019-04-04T13:10:35.536Z,3896.00
2019-04-04T13:11:35.528Z,3780.00
2019-04-04T13:12:35.516Z,3824.00
2019-04-04T13:13:38.060Z,3952.00
2019-04-04T13:14:35.533Z,4156.00
2019-04-04T13:15:35.491Z,4340.00
2019-04-04T13:16:35.481Z,4332.00
2019-04-04T13:17:35.458Z,4344.00
2019-04-04T13:18:35.459Z,4352.00
2019-04-04T13:19:35.428Z,4232.00
2019-04-04T13:20:35.441Z,4068.00
2019-04-04T13:21:35.419Z,4008.00
2019-04-04T13:22:35.407Z,4044.00
2019-04-04T13:23:35.400Z,4084.00
2019-04-04T13:24:35.380Z,4140.00
2019-04-04T13:25:35.371Z,4236.00
2019-04-04T13:26:35.370Z,4380.00
2019-04-04T13:27:35.346Z,4472.00
2019-04-04T13:28:35.338Z,4400.00
2019-04-04T13:29:35.328Z,4292.00
2019-04-04T13:30:35.326Z,4236.00
2019-04-04T13:31:35.326Z,4228.00
2019-04-04T13:32:35.287Z,4240.00
2019-04-04T13:33:35.280Z,4216.00
2019-04-04T13:34:35.284Z,4152.00
2019-04-04T13:35:37.697Z,4028.00
2019-04-04T13:36:36.740Z,3884.00
2019-04-04T13:37:35.241Z,3788.00
2019-04-04T13:38:35.225Z,3740.00
2019-04-04T13:39:35.211Z,3756.00
2019-04-04T13:40:44.749Z,3804.00
2019-04-04T13:41:36.210Z,3912.00
2019-04-04T13:42:35.183Z,4068.00
2019-04-04T13:43:35.195Z,4244.00
2019-04-04T13:44:35.166Z,4364.00
2019-04-04T13:45:35.153Z,4392.00
2019-04-04T13:46:35.147Z,4384.00
2019-04-04T13:47:38.289Z,4372.00
2019-04-04T13:48:35.120Z,4368.00
2019-04-04T13:49:35.133Z,4332.00
2019-04-04T13:50:35.098Z,4248.00
2019-04-04T13:51:35.090Z,4156.00
2019-04-04T13:52:35.080Z,4124.00
2019-04-04T13:53:42.676Z,4144.00
2019-04-04T13:54:42.587Z,4192.00
2019-04-04T13:55:42.582Z,4260.00
2019-04-04T13:56:42.571Z,4340.00
2019-04-04T13:57:35.018Z,4412.00
2019-04-04T13:58:35.012Z,4464.00
2019-04-04T13:59:35.024Z,4496.00
2019-04-04T14:00:35.032Z,4480.00
2019-04-04T14:01:34.984Z,4404.00
2019-04-04T14:02:34.981Z,4276.00
2019-04-04T14:03:34.953Z,4144.00
2019-04-04T14:04:34.964Z,4020.00
2019-04-04T14:05:34.959Z,3936.00
2019-04-04T14:06:34.926Z,3868.00
2019-04-04T14:07:34.914Z,3780.00
2019-04-04T14:08:34.904Z,3716.00
2019-04-04T14:09:34.908Z,3756.00
2019-04-04T14:10:34.896Z,3848.00
2019-04-04T14:11:34.866Z,3936.00
2019-04-04T14:12:34.891Z,4052.00
2019-04-04T14:13:34.850Z,4164.00
2019-04-04T14:14:34.839Z,4112.00
2019-04-04T14:15:34.836Z,3912.00
2019-04-04T14:16:34.815Z,3704.00
2019-04-04T14:17:34.806Z,3532.00
2019-04-04T14:18:39.900Z,3424.00
2019-04-04T14:19:36.449Z,3412.00
2019-04-04T14:20:34.794Z,3444.00
2019-04-04T14:21:34.760Z,3456.00
2019-04-04T14:22:34.766Z,3440.00
2019-04-04T14:23:34.734Z,3412.00
2019-04-04T14:24:34.725Z,3340.00
2019-04-04T14:25:34.738Z,3208.00
2019-04-04T14:26:34.715Z,3088.00
2019-04-04T14:27:34.698Z,3040.00
2019-04-04T14:28:34.683Z,3116.00
2019-04-04T14:29:34.675Z,3340.00
2019-04-04T14:30:34.680Z,3648.00
2019-04-04T14:31:34.655Z,3956.00
2019-04-04T14:32:34.661Z,4216.00
2019-04-04T14:33:34.643Z,4508.00
2019-04-04T14:34:34.618Z,4824.00
2019-04-04T14:35:34.622Z,5044.00
2019-04-04T14:36:34.604Z,5048.00
2019-04-04T14:37:34.586Z,4976.00
2019-04-04T14:38:34.582Z,4828.00
2019-04-04T14:39:34.580Z,4680.00
2019-04-04T14:40:34.579Z,4584.00
2019-04-04T14:41:34.547Z,4536.00
2019-04-04T14:42:34.533Z,4512.00
2019-04-04T14:43:34.522Z,4404.00
2019-04-04T14:44:35.925Z,4196.00
2019-04-04T14:45:34.512Z,4036.00
2019-04-04T14:46:34.495Z,3932.00
2019-04-04T14:47:34.493Z,3864.00
2019-04-04T14:48:34.468Z,3912.00
2019-04-04T14:49:34.477Z,4116.00
2019-04-04T14:50:34.448Z,4244.00
2019-04-04T14:51:34.439Z,4268.00
2019-04-04T14:52:34.436Z,4240.00
2019-04-04T14:53:34.414Z,4088.00
2019-04-04T14:54:34.426Z,3900.00
2019-04-04T14:55:34.392Z,3720.00
2019-04-04T14:56:34.380Z,3568.00
2019-04-04T14:57:34.388Z,3496.00
2019-04-04T14:58:34.394Z,3416.00
2019-04-04T14:59:34.394Z,3408.00
2019-04-04T15:00:34.485Z,3400.00
2019-04-04T15:01:35.220Z,3388.00
2019-04-04T15:02:35.317Z,3308.00
2019-04-04T15:03:34.322Z,3160.00
2019-04-04T15:04:34.311Z,3008.00
2019-04-04T15:05:34.284Z,2924.00
2019-04-04T15:06:34.277Z,2896.00
2019-04-04T15:07:34.259Z,2956.00
2019-04-04T15:08:34.250Z,3040.00
2019-04-04T15:09:34.272Z,3108.00
2019-04-04T15:10:34.231Z,3124.00
2019-04-04T15:11:34.221Z,3072.00
2019-04-04T15:12:34.216Z,3004.00
2019-04-04T15:13:34.203Z,3044.00
2019-04-04T15:14:34.209Z,3160.00
2019-04-04T15:15:34.173Z,3292.00
2019-04-04T15:16:34.168Z,3448.00
2019-04-04T15:17:34.154Z,3632.00
2019-04-04T15:18:34.142Z,3776.00
2019-04-04T15:19:34.146Z,3820.00
2019-04-04T15:20:34.124Z,3780.00
2019-04-04T15:21:34.109Z,3708.00
2019-04-04T15:22:34.102Z,3704.00
2019-04-04T15:23:34.091Z,3736.00
2019-04-04T15:24:34.095Z,3732.00
2019-04-04T15:25:34.067Z,3656.00
2019-04-04T15:26:34.066Z,3480.00
2019-04-04T15:27:34.066Z,3400.00
2019-04-04T15:28:34.060Z,3388.00
2019-04-04T15:29:34.023Z,3360.00
2019-04-04T15:30:34.014Z,3332.00
2019-04-04T15:31:34.004Z,3328.00
2019-04-04T15:32:33.987Z,3308.00
2019-04-04T15:33:33.983Z,3336.00
2019-04-04T15:34:33.994Z,3460.00
2019-04-04T15:35:33.969Z,3636.00
2019-04-04T15:36:33.950Z,3808.00
2019-04-04T15:37:33.942Z,3900.00
2019-04-04T15:38:33.926Z,3956.00
2019-04-04T15:39:33.933Z,4036.00
2019-04-04T15:40:33.901Z,4084.00
2019-04-04T15:41:37.337Z,4120.00
2019-04-04T15:42:33.883Z,4168.00
2019-04-04T15:43:33.875Z,4196.00
2019-04-04T15:44:33.886Z,4216.00
2019-04-04T15:45:33.855Z,4224.00
2019-04-04T15:46:33.844Z,4208.00
2019-04-04T15:47:33.826Z,4168.00
2019-04-04T15:48:33.827Z,4104.00
2019-04-04T15:49:33.807Z,4036.00
2019-04-04T15:50:33.814Z,3968.00
2019-04-04T15:51:33.792Z,3940.00
2019-04-04T15:52:33.771Z,3924.00
2019-04-04T15:53:33.773Z,3920.00
2019-04-04T15:54:33.783Z,3952.00
2019-04-04T15:55:33.747Z,3996.00
2019-04-04T15:56:33.748Z,4076.00
2019-04-04T15:57:33.723Z,4220.00
2019-04-04T15:58:33.711Z,4404.00
2019-04-04T15:59:33.718Z,4592.00
2019-04-04T16:00:33.690Z,4788.00
2019-04-04T16:01:33.699Z,4908.00
2019-04-04T16:02:33.685Z,4956.00
2019-04-04T16:03:33.657Z,4956.00
2019-04-04T16:04:33.641Z,4872.00
2019-04-04T16:05:33.634Z,4740.00
2019-04-04T16:06:33.635Z,4572.00
2019-04-04T16:07:33.633Z,4428.00
2019-04-04T16:08:33.611Z,4332.00
2019-04-04T16:09:33.597Z,4324.00
2019-04-04T16:10:33.581Z,4320.00
2019-04-04T16:11:33.569Z,4300.00
2019-04-04T16:12:41.119Z,4252.00
2019-04-04T16:13:41.089Z,4248.00